createdAt,value
2017-08-03T00:00:53.942Z,13.10
2017-08-03T00:03:20.007Z,12.43
2017-08-03T00:05:46.136Z,9.20
2017-08-03T00:08:12.285Z,9.00
2017-08-03T00:10:39.118Z,10.60
2017-08-03T00:13:05.176Z,9.37
2017-08-03T00:15:31.279Z,9.83
2017-08-03T00:17:57.490Z,9.07
2017-08-03T00:20:23.675Z,9.40
2017-08-03T00:22:49.734Z,17.80
2017-08-03T00:25:15.802Z,9.57
2017-08-03T00:27:41.875Z,11.90
2017-08-03T00:30:07.970Z,10.30
2017-08-03T00:32:34.026Z,9.93
2017-08-03T00:35:00.133Z,9.93
2017-08-03T00:37:26.207Z,9.90
2017-08-03T00:39:52.281Z,13.30
2017-08-03T00:42:18.366Z,12.27
2017-08-03T00:44:45.206Z,10.00
2017-08-03T00:47:11.271Z,12.23
2017-08-03T00:49:37.325Z,16.33
2017-08-03T00:52:03.451Z,11.57
2017-08-03T00:54:29.504Z,11.20
2017-08-03T00:56:55.571Z,13.33
2017-08-03T00:59:21.636Z,15.70
2017-08-03T01:01:47.718Z,10.37
2017-08-03T01:04:13.884Z,11.30
2017-08-03T01:06:39.975Z,13.60
2017-08-03T01:09:06.035Z,10.70
2017-08-03T01:11:32.107Z,11.27
2017-08-03T01:13:58.172Z,11.70
2017-08-03T01:16:24.266Z,9.67
2017-08-03T01:18:50.340Z,11.20
2017-08-03T01:21:16.411Z,13.77
2017-08-03T01:23:42.594Z,12.27
2017-08-03T01:26:08.667Z,13.40
2017-08-03T01:28:34.745Z,14.97
2017-08-03T01:31:00.827Z,10.00
2017-08-03T01:33:26.932Z,10.60
2017-08-03T01:35:53.010Z,11.17
2017-08-03T01:38:19.099Z,10.10
2017-08-03T01:40:45.180Z,15.50
2017-08-03T01:43:11.262Z,10.40
2017-08-03T01:45:37.336Z,9.93
2017-08-03T01:48:03.428Z,13.23
2017-08-03T01:50:29.511Z,13.43
2017-08-03T01:52:55.603Z,13.33
2017-08-03T01:55:21.667Z,12.37
2017-08-03T01:57:47.765Z,13.70
2017-08-03T02:00:13.870Z,12.90
2017-08-03T02:02:40.714Z,10.53
2017-08-03T02:05:06.806Z,11.10
2017-08-03T02:07:32.890Z,11.17
2017-08-03T02:09:58.982Z,15.33
2017-08-03T02:12:25.148Z,10.97
2017-08-03T02:14:51.258Z,14.03
2017-08-03T02:17:17.606Z,10.13
2017-08-03T02:19:43.684Z,11.57
2017-08-03T02:22:09.746Z,12.03
2017-08-03T02:24:35.843Z,9.43
2017-08-03T02:27:01.911Z,15.53
2017-08-03T02:29:28.028Z,11.60
2017-08-03T02:31:54.121Z,10.00
2017-08-03T02:34:20.186Z,11.20
2017-08-03T02:36:49.354Z,14.90
2017-08-03T02:39:15.458Z,12.93
2017-08-03T02:41:41.542Z,11.47
2017-08-03T02:44:07.878Z,10.10
2017-08-03T02:46:33.947Z,14.80
2017-08-03T02:49:00.035Z,10.33
2017-08-03T02:51:26.103Z,9.73
2017-08-03T02:53:52.934Z,12.00
2017-08-03T02:56:19.751Z,11.63
2017-08-03T02:58:45.817Z,12.33
2017-08-03T03:01:12.607Z,13.63
2017-08-03T03:03:38.687Z,14.53
2017-08-03T03:06:04.762Z,12.17
2017-08-03T03:08:30.882Z,9.70
2017-08-03T03:10:57.091Z,12.53
2017-08-03T03:13:23.159Z,10.27
2017-08-03T03:15:49.243Z,11.50
2017-08-03T03:18:15.315Z,12.10
2017-08-03T03:20:41.403Z,17.10
2017-08-03T03:23:07.459Z,11.60
2017-08-03T03:25:33.538Z,13.83
2017-08-03T03:27:59.590Z,14.17
2017-08-03T03:30:25.668Z,10.10
2017-08-03T03:32:51.741Z,12.40
2017-08-03T03:35:17.810Z,11.27
2017-08-03T03:37:43.986Z,15.90
2017-08-03T03:40:10.103Z,20.13
2017-08-03T03:42:36.166Z,18.50
2017-08-03T03:45:03.001Z,13.23
2017-08-03T03:47:29.104Z,11.27
2017-08-03T03:49:55.175Z,11.33
2017-08-03T03:52:21.257Z,13.40
2017-08-03T03:54:47.338Z,12.37
2017-08-03T03:57:13.404Z,12.10
2017-08-03T03:59:39.550Z,12.03
2017-08-03T04:02:05.650Z,12.70
2017-08-03T04:04:31.730Z,12.60
2017-08-03T04:06:58.110Z,15.60
2017-08-03T04:09:24.268Z,14.03
2017-08-03T04:11:50.331Z,13.90
2017-08-03T04:14:16.398Z,11.63
2017-08-03T04:16:42.467Z,19.20
2017-08-03T04:19:08.555Z,13.27
2017-08-03T04:21:34.647Z,15.83
2017-08-03T04:24:00.722Z,18.60
2017-08-03T04:26:27.525Z,12.30
2017-08-03T04:28:53.747Z,13.60
2017-08-03T04:31:19.795Z,16.33
2017-08-03T04:33:45.875Z,15.33
2017-08-03T04:36:11.946Z,16.57
2017-08-03T04:38:38.010Z,20.23
2017-08-03T04:41:04.092Z,16.70
2017-08-03T04:43:30.170Z,13.77
2017-08-03T04:45:56.386Z,15.40
2017-08-03T04:48:22.450Z,19.87
2017-08-03T04:50:48.514Z,13.03
2017-08-03T04:53:14.592Z,16.50
2017-08-03T04:55:40.691Z,17.50
2017-08-03T04:58:06.836Z,17.43
2017-08-03T05:00:32.937Z,12.30
2017-08-03T05:02:59.010Z,15.90
2017-08-03T05:05:25.150Z,15.80
2017-08-03T05:07:51.239Z,24.43
2017-08-03T05:10:17.387Z,15.37
2017-08-03T05:12:43.487Z,17.33
2017-08-03T05:15:09.555Z,25.27
2017-08-03T05:17:35.624Z,17.30
2017-08-03T05:20:01.707Z,22.07
2017-08-03T05:22:27.775Z,17.77
2017-08-03T05:24:53.854Z,18.17
2017-08-03T05:27:19.928Z,17.13
2017-08-03T05:29:46.024Z,20.80
2017-08-03T05:32:12.192Z,17.17
2017-08-03T05:34:38.283Z,17.77
2017-08-03T05:37:04.502Z,21.23
2017-08-03T05:39:31.326Z,18.67
2017-08-03T05:41:57.378Z,22.80
2017-08-03T05:44:23.458Z,18.70
2017-08-03T05:46:49.539Z,20.00
2017-08-03T05:49:15.622Z,23.30
2017-08-03T05:51:41.692Z,19.40
2017-08-03T05:54:07.782Z,20.73
2017-08-03T05:56:33.847Z,25.87
2017-08-03T05:58:59.987Z,19.20
2017-08-03T06:01:26.058Z,22.73
2017-08-03T06:03:52.138Z,19.57
2017-08-03T06:06:18.231Z,20.90
2017-08-03T06:08:44.314Z,18.27
2017-08-03T06:11:10.382Z,24.50
2017-08-03T06:13:36.629Z,22.67
2017-08-03T06:16:02.699Z,26.97
2017-08-03T06:18:28.775Z,21.90
2017-08-03T06:20:54.834Z,20.33
2017-08-03T06:23:20.944Z,19.50
2017-08-03T06:25:47.026Z,21.40
2017-08-03T06:28:13.151Z,20.00
2017-08-03T06:30:39.251Z,22.23
2017-08-03T06:33:05.438Z,24.60
2017-08-03T06:35:31.600Z,21.10
2017-08-03T06:37:57.707Z,21.90
2017-08-03T06:40:23.842Z,18.07
2017-08-03T06:42:49.911Z,21.67
2017-08-03T06:45:16.007Z,19.40
2017-08-03T06:47:42.067Z,22.73
2017-08-03T06:50:08.154Z,16.60
2017-08-03T06:52:34.231Z,17.70
2017-08-03T06:55:00.335Z,18.80
2017-08-03T06:57:26.384Z,16.40
2017-08-03T06:59:52.570Z,17.00
2017-08-03T07:02:19.490Z,14.40
2017-08-03T07:04:45.566Z,18.70
2017-08-03T07:07:11.680Z,14.47
2017-08-03T07:09:37.824Z,20.20
2017-08-03T07:12:03.878Z,17.30
2017-08-03T07:14:29.950Z,18.50
2017-08-03T07:16:56.026Z,15.30
2017-08-03T07:19:22.106Z,13.33
2017-08-03T07:21:48.266Z,13.33
2017-08-03T07:24:14.343Z,12.20
2017-08-03T07:26:40.516Z,11.90
2017-08-03T07:29:06.586Z,15.23
2017-08-03T07:31:32.655Z,11.70
2017-08-03T07:33:58.866Z,11.77
2017-08-03T07:36:24.993Z,18.13
2017-08-03T07:38:51.082Z,16.30
2017-08-03T07:41:17.170Z,13.30
2017-08-03T07:43:43.278Z,11.47
2017-08-03T07:46:09.393Z,11.43
2017-08-03T07:48:35.460Z,15.03
2017-08-03T07:51:01.552Z,15.57
2017-08-03T07:53:27.626Z,12.87
2017-08-03T07:55:53.714Z,15.53
2017-08-03T07:58:19.850Z,18.03
2017-08-03T08:00:45.930Z,11.40
2017-08-03T08:03:12.046Z,10.63
2017-08-03T08:05:38.187Z,10.47
2017-08-03T08:08:04.299Z,11.70
2017-08-03T08:10:30.402Z,13.80
2017-08-03T08:12:56.460Z,11.20
2017-08-03T08:15:22.541Z,9.37
2017-08-03T08:17:48.622Z,9.00
2017-08-03T08:20:14.675Z,21.77
2017-08-03T08:22:40.762Z,13.40
2017-08-03T08:25:08.098Z,11.70
2017-08-03T08:27:34.176Z,17.67
2017-08-03T08:30:00.277Z,11.77
2017-08-03T08:32:26.347Z,16.90
2017-08-03T08:34:52.411Z,12.10
2017-08-03T08:37:18.514Z,9.13
2017-08-03T08:39:44.604Z,8.63
2017-08-03T08:42:10.691Z,10.60
2017-08-03T08:44:36.959Z,15.33
2017-08-03T08:47:03.043Z,10.53
2017-08-03T08:49:29.115Z,8.43
2017-08-03T08:51:55.179Z,9.97
2017-08-03T08:54:21.266Z,11.50
2017-08-03T08:56:47.318Z,11.37
2017-08-03T08:59:13.458Z,16.33
2017-08-03T09:01:39.531Z,12.43
2017-08-03T09:04:05.603Z,8.97
2017-08-03T09:06:31.703Z,10.73
2017-08-03T09:08:57.782Z,8.33
2017-08-03T09:11:23.846Z,9.10
2017-08-03T09:13:49.940Z,12.57
2017-08-03T09:16:15.995Z,7.23
2017-08-03T09:18:42.083Z,11.53
2017-08-03T09:21:08.150Z,7.37
2017-08-03T09:23:34.224Z,8.43
2017-08-03T09:26:00.307Z,7.80
2017-08-03T09:28:26.380Z,8.20
2017-08-03T09:30:52.450Z,7.27
2017-08-03T09:33:18.525Z,9.17
2017-08-03T09:35:44.597Z,6.70
2017-08-03T09:38:10.723Z,6.83
2017-08-03T09:40:36.791Z,14.13
2017-08-03T09:43:02.859Z,11.40
2017-08-03T09:45:28.935Z,10.70
2017-08-03T09:47:54.995Z,7.63
2017-08-03T09:50:21.066Z,10.50
2017-08-03T09:52:47.199Z,8.57
2017-08-03T09:55:13.395Z,7.70
2017-08-03T09:57:39.454Z,8.00
2017-08-03T10:00:05.526Z,7.73
2017-08-03T10:02:31.578Z,11.50
2017-08-03T10:04:57.734Z,9.93
2017-08-03T10:07:23.811Z,9.43
2017-08-03T10:09:49.919Z,9.37
2017-08-03T10:12:15.993Z,7.03
2017-08-03T10:14:42.814Z,14.37
2017-08-03T10:17:08.882Z,9.20
2017-08-03T10:19:34.958Z,8.37
2017-08-03T10:22:01.010Z,10.20
2017-08-03T10:24:27.189Z,6.93
2017-08-03T10:26:53.243Z,7.30
2017-08-03T10:29:19.363Z,11.20
2017-08-03T10:31:45.414Z,9.63
2017-08-03T10:34:11.490Z,10.13
2017-08-03T10:36:37.567Z,10.80
2017-08-03T10:39:03.675Z,10.70
2017-08-03T10:41:29.722Z,9.13
2017-08-03T10:43:55.770Z,8.63
2017-08-03T10:46:21.846Z,9.30
2017-08-03T10:48:48.642Z,9.17
2017-08-03T10:51:14.732Z,7.70
2017-08-03T10:53:40.796Z,9.17
2017-08-03T10:56:06.866Z,10.60
2017-08-03T10:58:33.670Z,7.63
2017-08-03T11:00:59.739Z,7.30
2017-08-03T11:03:25.806Z,6.70
2017-08-03T11:05:51.901Z,9.70
2017-08-03T11:08:18.091Z,7.47
2017-08-03T11:10:44.203Z,8.60
2017-08-03T11:13:10.279Z,7.80
2017-08-03T11:15:36.358Z,9.17
2017-08-03T11:18:02.535Z,7.63
2017-08-03T11:20:28.622Z,7.30
2017-08-03T11:22:54.694Z,8.80
2017-08-03T11:25:20.742Z,8.27
2017-08-03T11:27:46.849Z,6.00
2017-08-03T11:30:12.902Z,8.77
2017-08-03T11:32:38.986Z,4.80
2017-08-03T11:35:05.038Z,5.30
2017-08-03T11:37:31.115Z,10.30
2017-08-03T11:39:57.909Z,4.40
2017-08-03T11:42:23.982Z,5.00
2017-08-03T11:44:50.778Z,5.60
2017-08-03T11:47:16.850Z,5.73
2017-08-03T11:49:43.641Z,7.23
2017-08-03T11:52:09.702Z,7.63
2017-08-03T11:54:35.798Z,5.47
2017-08-03T11:57:01.867Z,4.83
2017-08-03T11:59:28.671Z,4.83
2017-08-03T12:01:54.734Z,5.80
2017-08-03T12:04:21.539Z,7.20
2017-08-03T12:06:47.640Z,7.53
2017-08-03T12:09:13.711Z,8.27
2017-08-03T12:11:40.513Z,10.93
2017-08-03T12:14:06.591Z,7.20
2017-08-03T12:16:32.654Z,4.63
2017-08-03T12:18:58.732Z,5.40
2017-08-03T12:21:24.814Z,7.43
2017-08-03T12:23:50.897Z,11.23
2017-08-03T12:26:16.962Z,4.93
2017-08-03T12:28:43.037Z,5.27
2017-08-03T12:31:09.097Z,5.27
2017-08-03T12:33:35.182Z,7.60
2017-08-03T12:36:01.974Z,6.23
2017-08-03T12:38:28.075Z,4.50
2017-08-03T12:40:54.129Z,8.10
2017-08-03T12:43:20.186Z,5.10
2017-08-03T12:45:46.990Z,4.87
2017-08-03T12:48:13.053Z,4.70
2017-08-03T12:50:39.847Z,3.97
2017-08-03T12:53:05.937Z,3.50
2017-08-03T12:55:31.990Z,9.77
2017-08-03T12:57:58.037Z,5.97
2017-08-03T13:00:24.119Z,8.60
2017-08-03T13:02:50.174Z,4.83
2017-08-03T13:05:16.257Z,7.70
2017-08-03T13:07:42.322Z,5.70
2017-08-03T13:10:08.403Z,5.60
2017-08-03T13:12:35.199Z,7.03
2017-08-03T13:15:01.264Z,6.23
2017-08-03T13:17:27.314Z,4.60
2017-08-03T13:19:53.395Z,4.60
2017-08-03T13:22:19.466Z,5.30
2017-08-03T13:24:45.547Z,5.57
2017-08-03T13:27:11.607Z,6.50
2017-08-03T13:29:37.686Z,7.50
2017-08-03T13:32:03.739Z,5.70
2017-08-03T13:34:29.794Z,3.83
2017-08-03T13:36:55.862Z,14.50
2017-08-03T13:39:21.919Z,6.13
2017-08-03T13:41:47.978Z,5.10
2017-08-03T13:44:14.027Z,4.07
2017-08-03T13:46:40.099Z,3.77
2017-08-03T13:49:06.170Z,5.30
2017-08-03T13:51:32.238Z,4.10
2017-08-03T13:53:58.305Z,3.87
2017-08-03T13:56:24.379Z,3.33
2017-08-03T13:58:51.202Z,4.43
2017-08-03T14:01:17.482Z,2.70
2017-08-03T14:03:43.542Z,3.00
2017-08-03T14:06:09.633Z,3.50
2017-08-03T14:08:35.694Z,2.70
2017-08-03T14:11:01.753Z,3.03
2017-08-03T14:13:27.799Z,4.43
2017-08-03T14:15:53.916Z,4.00
2017-08-03T14:18:19.962Z,5.13
2017-08-03T14:20:46.058Z,3.40
2017-08-03T14:23:12.146Z,4.23
2017-08-03T14:25:38.223Z,2.20
2017-08-03T14:28:04.300Z,3.70
2017-08-03T14:30:30.363Z,2.97
2017-08-03T14:32:56.446Z,3.30
2017-08-03T14:35:22.502Z,2.80
2017-08-03T14:37:48.570Z,2.43
2017-08-03T14:40:14.627Z,2.53
2017-08-03T14:42:40.714Z,4.90
2017-08-03T14:45:06.770Z,3.97
2017-08-03T14:47:32.850Z,3.33
2017-08-03T14:49:58.935Z,2.50
2017-08-03T14:52:25.757Z,2.27
2017-08-03T14:54:51.822Z,2.33
2017-08-03T14:57:17.895Z,2.53
2017-08-03T14:59:43.982Z,2.20
2017-08-03T15:02:10.062Z,1.90
2017-08-03T15:04:36.117Z,2.30
2017-08-03T15:07:02.239Z,1.60
2017-08-03T15:09:28.329Z,2.90
2017-08-03T15:14:27.383Z,1.93
2017-08-03T15:16:53.454Z,3.90
2017-08-03T15:19:19.855Z,2.03
2017-08-03T15:21:45.941Z,1.90
2017-08-03T15:24:12.006Z,1.50
2017-08-03T15:26:38.059Z,3.50
2017-08-03T15:29:04.122Z,2.90
2017-08-03T15:31:30.966Z,2.10
2017-08-03T15:33:57.806Z,1.80
2017-08-03T15:36:24.610Z,2.43
2017-08-03T15:38:50.698Z,2.20
2017-08-03T15:41:16.749Z,4.13
2017-08-03T15:43:42.818Z,2.73
2017-08-03T15:46:09.619Z,2.20
2017-08-03T15:48:36.001Z,1.90
2017-08-03T15:51:02.124Z,1.90
2017-08-03T15:53:28.931Z,1.93
2017-08-03T15:55:54.990Z,3.10
2017-08-03T15:58:21.864Z,2.40
2017-08-03T16:00:47.935Z,1.90
2017-08-03T16:03:14.018Z,2.10
2017-08-03T16:05:40.086Z,2.20
2017-08-03T16:08:06.173Z,5.97
2017-08-03T16:10:32.251Z,2.80
2017-08-03T16:12:58.310Z,5.77
2017-08-03T16:15:24.532Z,2.80
2017-08-03T16:17:50.590Z,1.97
2017-08-03T16:20:16.669Z,4.70
2017-08-03T16:22:42.742Z,6.17
2017-08-03T16:25:08.802Z,2.00
2017-08-03T16:27:34.862Z,2.50
2017-08-03T16:30:00.927Z,3.97
2017-08-03T16:32:26.985Z,2.00
2017-08-03T16:34:53.054Z,2.20
2017-08-03T16:37:19.115Z,4.20
2017-08-03T16:39:45.929Z,2.43
2017-08-03T16:42:11.983Z,2.40
2017-08-03T16:44:38.808Z,1.70
2017-08-03T16:47:04.857Z,1.90
2017-08-03T16:49:30.938Z,1.90
2017-08-03T16:51:56.986Z,2.57
2017-08-03T16:54:23.067Z,1.93
2017-08-03T16:56:49.126Z,2.33
2017-08-03T16:59:15.170Z,2.20
2017-08-03T17:01:41.982Z,5.83
2017-08-03T17:04:09.035Z,2.23
2017-08-03T17:06:35.119Z,4.83
2017-08-03T17:09:01.173Z,2.10
2017-08-03T17:11:27.250Z,3.57
2017-08-03T17:13:53.302Z,2.53
2017-08-03T17:16:19.976Z,3.00
2017-08-03T17:18:46.086Z,3.73
2017-08-03T17:21:12.166Z,7.90
2017-08-03T17:23:38.243Z,2.53
2017-08-03T17:26:04.354Z,3.03
2017-08-03T17:28:30.423Z,3.60
2017-08-03T17:30:57.579Z,3.07
2017-08-03T17:33:24.455Z,6.33
2017-08-03T17:35:50.519Z,9.00
2017-08-03T17:38:16.618Z,3.10
2017-08-03T17:40:42.682Z,5.57
2017-08-03T17:43:09.502Z,4.70
2017-08-03T17:45:35.559Z,3.60
2017-08-03T17:48:02.394Z,2.33
2017-08-03T17:50:29.199Z,13.03
2017-08-03T17:52:55.297Z,5.00
2017-08-03T17:55:21.356Z,4.10
2017-08-03T17:57:47.450Z,3.00
2017-08-03T18:00:13.537Z,5.50
2017-08-03T18:02:40.375Z,2.73
2017-08-03T18:05:07.204Z,3.67
2017-08-03T18:07:33.291Z,4.00
2017-08-03T18:09:59.355Z,5.43
2017-08-03T18:12:25.442Z,3.17
2017-08-03T18:14:51.502Z,6.17
2017-08-03T18:17:17.832Z,4.77
2017-08-03T18:19:43.975Z,2.90
2017-08-03T18:22:10.035Z,4.70
2017-08-03T18:24:36.126Z,5.13
2017-08-03T18:27:02.202Z,3.63
2017-08-03T18:29:28.278Z,4.20
2017-08-03T18:31:54.374Z,3.70
2017-08-03T18:34:20.480Z,6.40
2017-08-03T18:36:46.562Z,2.83
2017-08-03T18:39:12.661Z,3.00
2017-08-03T18:41:38.725Z,13.43
2017-08-03T18:44:04.814Z,4.37
2017-08-03T18:46:30.882Z,3.10
2017-08-03T18:48:56.976Z,4.50
2017-08-03T18:51:23.787Z,3.40
2017-08-03T18:53:49.863Z,2.93
2017-08-03T18:56:16.196Z,3.67
2017-08-03T18:58:42.300Z,6.10
2017-08-03T19:01:08.392Z,5.47
2017-08-03T19:03:34.485Z,3.57
2017-08-03T19:06:00.566Z,5.47
2017-08-03T19:08:27.395Z,5.53
2017-08-03T19:10:53.464Z,4.67
2017-08-03T19:13:19.547Z,5.60
2017-08-03T19:15:45.623Z,5.00
2017-08-03T19:18:11.727Z,6.83
2017-08-03T19:20:37.790Z,5.27
2017-08-03T19:23:03.846Z,13.10
2017-08-03T19:25:29.982Z,5.10
2017-08-03T19:27:56.785Z,6.07
2017-08-03T19:30:22.855Z,5.53
2017-08-03T19:32:48.940Z,4.17
2017-08-03T19:35:15.027Z,4.90
2017-08-03T19:37:41.084Z,5.53
2017-08-03T19:40:07.191Z,3.13
2017-08-03T19:42:33.291Z,6.30
2017-08-03T19:44:59.368Z,10.17
2017-08-03T19:47:26.218Z,3.90
2017-08-03T19:49:52.304Z,7.57
2017-08-03T19:52:18.370Z,7.17
2017-08-03T19:54:44.448Z,3.50
2017-08-03T19:57:10.517Z,9.30
2017-08-03T19:59:36.780Z,8.30
2017-08-03T20:02:02.905Z,7.13
2017-08-03T20:04:29.718Z,2.90
2017-08-03T20:07:08.054Z,6.23
2017-08-03T20:09:35.891Z,6.77
2017-08-03T20:12:01.987Z,6.00
2017-08-03T20:14:28.062Z,5.40
2017-08-03T20:16:54.906Z,4.90
2017-08-03T20:19:21.051Z,7.30
2017-08-03T20:21:47.138Z,9.23
2017-08-03T20:24:13.214Z,5.20
2017-08-03T20:26:39.315Z,5.83
2017-08-03T20:29:06.115Z,11.93
2017-08-03T20:31:32.194Z,6.60
2017-08-03T20:33:58.275Z,6.67
2017-08-03T20:36:24.369Z,8.93
2017-08-03T20:38:50.438Z,5.90
2017-08-03T20:41:16.555Z,7.77
2017-08-03T20:43:42.610Z,5.67
2017-08-03T20:46:09.460Z,8.60
2017-08-03T20:48:35.541Z,6.90
2017-08-03T20:51:01.651Z,5.53
2017-08-03T20:53:27.736Z,6.83
2017-08-03T20:55:53.863Z,11.00
2017-08-03T20:58:19.919Z,12.97
2017-08-03T21:00:46.018Z,6.80
2017-08-03T21:03:12.128Z,7.80
2017-08-03T21:05:38.210Z,5.27
2017-08-03T21:08:04.299Z,12.33
2017-08-03T21:10:30.402Z,7.50
2017-08-03T21:12:57.210Z,3.93
2017-08-03T21:15:23.354Z,6.10
2017-08-03T21:17:49.764Z,6.30
2017-08-03T21:20:15.923Z,6.33
2017-08-03T21:22:42.754Z,5.70
2017-08-03T21:25:08.862Z,4.47
2017-08-03T21:27:34.953Z,8.87
2017-08-03T21:30:01.027Z,7.37
2017-08-03T21:32:27.104Z,14.60
2017-08-03T21:34:53.167Z,6.93
2017-08-03T21:37:19.259Z,6.97
2017-08-03T21:39:45.342Z,9.20
2017-08-03T21:42:11.967Z,11.30
2017-08-03T21:44:38.191Z,6.97
2017-08-03T21:47:04.280Z,6.10
2017-08-03T21:49:30.359Z,10.73
2017-08-03T21:51:56.439Z,10.03
2017-08-03T21:54:22.510Z,8.63
2017-08-03T21:56:48.583Z,10.57
2017-08-03T21:59:15.347Z,8.97
2017-08-03T22:01:41.425Z,9.80
2017-08-03T22:04:07.502Z,8.70
2017-08-03T22:06:33.587Z,13.17
2017-08-03T22:08:59.694Z,12.80
2017-08-03T22:11:25.774Z,7.23
2017-08-03T22:13:51.959Z,10.13
2017-08-03T22:16:18.006Z,8.10
2017-08-03T22:18:44.166Z,10.23
2017-08-03T22:21:10.256Z,10.43
2017-08-03T22:23:36.562Z,7.73
2017-08-03T22:26:02.632Z,4.13
2017-08-03T22:28:28.710Z,7.10
2017-08-03T22:30:54.782Z,8.33
2017-08-03T22:33:20.879Z,7.33
2017-08-03T22:35:46.946Z,6.40
2017-08-03T22:38:13.031Z,5.40
2017-08-03T22:40:39.660Z,7.33
2017-08-03T22:43:05.746Z,8.03
2017-08-03T22:45:31.806Z,7.33
2017-08-03T22:47:57.895Z,7.63
2017-08-03T22:50:23.967Z,8.87
2017-08-03T22:52:50.034Z,8.17
2017-08-03T22:55:16.090Z,7.60
2017-08-03T22:57:42.159Z,7.30
2017-08-03T23:00:08.235Z,5.30
2017-08-03T23:02:34.307Z,8.30
2017-08-03T23:05:00.374Z,4.43
2017-08-03T23:07:28.314Z,8.00
2017-08-03T23:09:54.395Z,6.00
2017-08-03T23:12:20.610Z,10.30
2017-08-03T23:14:46.660Z,8.03
2017-08-03T23:17:12.741Z,6.33
2017-08-03T23:19:38.802Z,8.20
2017-08-03T23:22:04.886Z,7.30
2017-08-03T23:24:30.947Z,9.80
2017-08-03T23:26:57.282Z,4.70
2017-08-03T23:29:23.342Z,12.47
2017-08-03T23:31:49.426Z,4.80
2017-08-03T23:34:15.479Z,5.93
2017-08-03T23:36:41.595Z,8.53
2017-08-03T23:39:07.651Z,8.80
2017-08-03T23:41:33.715Z,5.60
2017-08-03T23:43:59.786Z,7.90
2017-08-03T23:46:25.877Z,12.13
2017-08-03T23:48:51.930Z,5.60
2017-08-03T23:51:17.995Z,6.77
2017-08-03T23:53:44.062Z,5.03
2017-08-03T23:56:10.126Z,11.13
2017-08-03T23:58:36.948Z,3.20
